Time;durP1;ratioP1;P1;durP2;ratioP2;P2;SDS_P1;SDS_P2;PMS_P1;PMS_P2;Temp;Humidity;BMP_temperature;BMP_pressure;BME280_temperature;BME280_humidity;BME280_pressure;Samples;Min_cycle;Max_cycle;Signal;HPM_P1;HPM_P2
2023/10/17 00:00:58;;;;;;;10.20;10.00;;;6.30;99.90;;;;;;5028399;28;20473;-68
2023/10/17 00:03:25;;;;;;;9.80;9.60;;;6.40;99.90;;;;;;5039681;28;20540;-68
2023/10/17 00:05:55;;;;;;;10.13;9.93;;;6.40;99.90;;;;;;5030723;28;20542;-68
2023/10/17 00:08:21;;;;;;;9.80;9.60;;;6.30;99.90;;;;;;5033170;28;20812;-68
2023/10/17 00:10:50;;;;;;;9.90;9.70;;;6.20;99.90;;;;;;5020537;28;20457;-68
2023/10/17 00:13:31;;;;;;;10.20;10.00;;;6.10;99.90;;;;;;5017521;28;20470;-68
2023/10/17 00:16:00;;;;;;;10.30;10.10;;;6.10;99.90;;;;;;5029340;28;20459;-68
2023/10/17 00:18:27;;;;;;;10.55;10.35;;;6.00;99.90;;;;;;5030743;28;20218;-68
2023/10/17 00:21:09;;;;;;;10.00;9.80;;;6.00;99.90;;;;;;5038326;28;20197;-68
2023/10/17 00:23:39;;;;;;;9.95;9.75;;;6.00;99.90;;;;;;5030514;28;20563;-68
2023/10/17 00:26:08;;;;;;;10.23;10.02;;;5.80;99.90;;;;;;5037764;28;20212;-68
2023/10/17 00:28:36;;;;;;;10.60;10.40;;;5.80;99.90;;;;;;5016208;28;20657;-68
2023/10/17 00:31:04;;;;;;;10.13;9.93;;;5.80;99.90;;;;;;5027760;28;20257;-68
2023/10/17 00:33:32;;;;;;;10.60;10.40;;;5.80;99.90;;;;;;5025805;28;20501;-68
2023/10/17 00:36:03;;;;;;;10.57;10.37;;;5.60;99.90;;;;;;5028510;28;20463;-68
2023/10/17 00:38:35;;;;;;;10.60;10.40;;;5.60;99.90;;;;;;5046676;28;20538;-68
2023/10/17 00:41:03;;;;;;;11.10;10.80;;;5.50;99.90;;;;;;5034858;28;20209;-68
2023/10/17 00:43:31;;;;;;;10.95;10.65;;;5.50;99.90;;;;;;5019028;28;20528;-68
2023/10/17 00:45:59;;;;;;;10.90;10.60;;;5.50;99.90;;;;;;5028272;28;20198;-68
2023/10/17 00:48:26;;;;;;;9.90;9.70;;;5.70;99.90;;;;;;5031953;28;20492;-67
2023/10/17 00:51:06;;;;;;;10.57;10.37;;;5.80;99.90;;;;;;5028762;28;20475;-68
2023/10/17 00:53:40;;;;;;;10.70;10.50;;;5.80;99.90;;;;;;5029039;28;20475;-68
2023/10/17 00:56:07;;;;;;;10.47;10.27;;;5.80;99.90;;;;;;5025426;28;20458;-67
2023/10/17 00:58:35;;;;;;;10.57;10.37;;;5.80;99.90;;;;;;5023282;28;20503;-68
2023/10/17 01:01:14;;;;;;;10.30;10.10;;;5.80;99.90;;;;;;5033973;28;20469;-69
2023/10/17 01:03:43;;;;;;;10.97;10.67;;;5.80;99.90;;;;;;5014496;28;20806;-68
2023/10/17 01:06:21;;;;;;;10.10;9.90;;;5.80;99.90;;;;;;5040355;28;20516;-68
2023/10/17 01:08:51;;;;;;;10.20;10.00;;;5.80;99.90;;;;;;5029831;28;20500;-68
2023/10/17 01:11:26;;;;;;;10.70;10.50;;;5.80;99.90;;;;;;5031389;28;20518;-68
2023/10/17 01:13:55;;;;;;;9.97;9.77;;;5.90;99.90;;;;;;5035321;28;20487;-67
2023/10/17 01:16:24;;;;;;;9.90;9.70;;;5.90;99.90;;;;;;5013781;28;20975;-68
2023/10/17 01:18:53;;;;;;;10.60;10.40;;;6.00;99.90;;;;;;5034893;28;20503;-69
2023/10/17 01:21:21;;;;;;;9.93;9.73;;;6.10;99.90;;;;;;5018097;28;20467;-68
2023/10/17 01:23:51;;;;;;;10.20;10.00;;;6.20;99.90;;;;;;5044731;28;20463;-69
2023/10/17 01:26:23;;;;;;;10.30;10.10;;;6.30;99.90;;;;;;5026920;28;20629;-68
2023/10/17 01:28:50;;;;;;;10.50;10.30;;;6.30;99.90;;;;;;5034712;28;20469;-69
2023/10/17 01:31:22;;;;;;;10.88;10.57;;;6.30;99.90;;;;;;5042221;28;20465;-67
2023/10/17 01:33:52;;;;;;;10.10;9.90;;;6.40;99.90;;;;;;5024283;28;20226;-68
2023/10/17 01:36:20;;;;;;;10.27;10.07;;;6.40;99.90;;;;;;5018836;28;20473;-68
2023/10/17 01:38:49;;;;;;;10.90;10.60;;;6.50;99.90;;;;;;5033308;28;20228;-69
2023/10/17 01:41:18;;;;;;;11.40;11.10;;;6.50;99.90;;;;;;5040232;28;20452;-69
2023/10/17 01:43:46;;;;;;;10.60;10.40;;;6.50;99.90;;;;;;5036925;28;20290;-69
2023/10/17 01:46:15;;;;;;;10.67;10.47;;;6.60;99.90;;;;;;5029794;28;20962;-68
2023/10/17 02:46:18;;;;;;;4.03;4.03;;;;;;;;;;5041506;28;21113;-69
2023/10/17 02:48:47;;;;;;;4.97;4.97;;;;;;;;;;5038030;28;21385;-69
2023/10/17 02:51:33;;;;;;;4.90;4.90;;;;;;;;;;5041621;28;20489;-69
2023/10/17 02:54:05;;;;;;;5.80;5.70;;;;;;;;;;5042053;28;20491;-70
2023/10/17 02:56:36;;;;;;;6.30;6.20;;;;;;;;;;5036631;28;20464;-69
2023/10/17 02:59:06;;;;;;;6.20;6.10;;;;;;;;;;5020978;28;20493;-69
2023/10/17 03:01:37;;;;;;;6.53;6.43;;;;;;;;;;5041712;28;20460;-69
2023/10/17 03:04:07;;;;;;;6.70;6.60;;;;;;;;;;5041833;28;21079;-69
2023/10/17 03:06:37;;;;;;;7.40;7.30;;;;;;;;;;5024453;28;20500;-69
2023/10/17 03:09:15;;;;;;;7.00;6.90;;;;;;;;;;5040178;28;20548;-69
2023/10/17 03:11:50;;;;;;;7.10;7.00;;;;;;;;;;5023602;28;20857;-70
2023/10/17 03:14:22;;;;;;;7.80;7.70;;;;;;;;;;5040037;28;20518;-70
2023/10/17 03:16:52;;;;;;;7.73;7.63;;;;;;;;;;5036101;28;20524;-68
2023/10/17 03:19:25;;;;;;;8.27;8.17;;;;;;;;;;5041582;28;20472;-69
2023/10/17 03:21:53;;;;;;;8.30;8.20;;;;;;;;;;5041362;28;20938;-69
2023/10/17 03:24:24;;;;;;;8.40;8.30;;;;;;;;;;5037307;28;20471;-69
2023/10/17 03:26:55;;;;;;;8.07;7.97;;;;;;;;;;5036690;28;20461;-70
2023/10/17 03:29:24;;;;;;;8.57;8.47;;;;;;;;;;5032187;28;20453;-70
2023/10/17 03:31:58;;;;;;;8.60;8.50;;;;;;;;;;5031624;28;20460;-70
2023/10/17 03:34:34;;;;;;;9.30;9.10;;;;;;;;;;5032027;28;21269;-68
2023/10/17 03:37:26;;;;;;;8.50;8.40;;;;;;;;;;5032557;28;20603;-68
2023/10/17 03:39:52;;;;;;;9.10;8.90;;;;;;;;;;5039174;27;20460;-68
2023/10/17 03:42:41;;;;;;;8.50;8.40;;;;;;;;;;5030088;28;20537;-68
2023/10/17 03:45:16;;;;;;;8.27;8.17;;;;;;;;;;5037544;28;20494;-68
2023/10/17 03:47:48;;;;;;;8.70;8.60;;;;;;;;;;5018958;28;20916;-68
2023/10/17 03:50:31;;;;;;;9.07;8.87;;;;;;;;;;5019749;28;20465;-69
2023/10/17 03:53:03;;;;;;;9.40;9.20;;;;;;;;;;5025986;28;20458;-68
2023/10/17 03:55:31;;;;;;;9.53;9.33;;;;;;;;;;5026151;28;21036;-69
2023/10/17 03:57:59;;;;;;;9.50;9.30;;;;;;;;;;5025488;28;20484;-69
2023/10/17 04:00:33;;;;;;;9.67;9.47;;;;;;;;;;5017415;28;20973;-69
2023/10/17 04:03:08;;;;;;;10.20;10.00;;;6.40;99.90;;;;;;5026763;28;20564;-68
2023/10/17 04:05:35;;;;;;;10.80;10.50;;;6.40;99.90;;;;;;5012167;28;20985;-69
2023/10/17 04:08:03;;;;;;;10.50;10.30;;;6.50;99.90;;;;;;5018830;28;20971;-69
2023/10/17 04:10:39;;;;;;;10.50;10.30;;;6.50;99.90;;;;;;5081046;27;20498;-69
2023/10/17 04:13:18;;;;;;;11.10;10.80;;;6.50;99.90;;;;;;5021885;28;20465;-70
2023/10/17 04:15:45;;;;;;;10.83;10.53;;;6.60;99.90;;;;;;5027273;28;20956;-69
2023/10/17 04:18:14;;;;;;;10.50;10.30;;;6.60;99.90;;;;;;5020970;28;20468;-71
2023/10/17 04:20:46;;;;;;;11.10;10.80;;;6.60;99.90;;;;;;5022006;28;20955;-71
2023/10/17 04:23:26;;;;;;;11.20;10.90;;;;;;;;;;5022219;28;20461;-70
2023/10/17 04:25:57;;;;;;;10.90;10.60;;;;;;;;;;5025133;28;20942;-70
2023/10/17 04:28:27;;;;;;;10.90;10.60;;;6.80;99.90;;;;;;5010394;28;21397;-69
2023/10/17 04:30:58;;;;;;;10.93;10.63;;;6.70;99.90;;;;;;5016868;28;20465;-70
2023/10/17 04:33:29;;;;;;;11.20;10.90;;;6.70;99.90;;;;;;5026177;28;21004;-69
2023/10/17 04:35:59;;;;;;;11.00;10.70;;;6.70;99.90;;;;;;5012974;28;20904;-69
2023/10/17 04:38:36;;;;;;;11.40;11.10;;;6.70;99.90;;;;;;5027293;28;20453;-70
2023/10/17 04:41:17;;;;;;;11.23;10.93;;;6.80;99.90;;;;;;5018450;28;20526;-70
2023/10/17 04:43:45;;;;;;;10.30;10.10;;;6.80;99.90;;;;;;5016115;28;21009;-70
2023/10/17 04:46:13;;;;;;;10.70;10.40;;;6.80;99.90;;;;;;5020743;28;20494;-70
2023/10/17 04:48:40;;;;;;;10.83;10.53;;;6.70;99.90;;;;;;5026975;28;20565;-70
2023/10/17 04:51:20;;;;;;;11.20;10.90;;;6.70;99.90;;;;;;5016603;28;20462;-69
2023/10/17 04:53:50;;;;;;;11.60;11.30;;;6.70;99.90;;;;;;5023944;28;20465;-69
2023/10/17 04:56:18;;;;;;;11.77;11.47;;;6.70;99.90;;;;;;5025643;28;20585;-70
2023/10/17 04:58:53;;;;;;;11.43;11.13;;;6.70;99.90;;;;;;5010736;28;20562;-71
2023/10/17 05:01:36;;;;;;;11.50;11.20;;;6.70;99.90;;;;;;5021542;28;20568;-71
2023/10/17 05:04:18;;;;;;;11.80;11.50;;;6.70;99.90;;;;;;5009475;28;20953;-69
2023/10/17 06:18:49;;;;;;;9.20;9.00;;;6.60;99.90;;;;;;5046818;27;20551;-71
2023/10/17 06:21:19;;;;;;;9.10;8.90;;;6.60;99.90;;;;;;5020389;27;20494;-70
2023/10/17 06:26:58;;;;;;;9.23;9.03;;;6.60;99.90;;;;;;5072087;27;20456;-70
2023/10/17 06:32:28;;;;;;;9.10;8.90;;;6.60;99.90;;;;;;5059083;28;20505;-70
2023/10/17 06:35:13;;;;;;;8.67;8.57;;;6.60;99.90;;;;;;5011208;28;20503;-70
2023/10/17 06:37:42;;;;;;;8.50;8.40;;;6.70;99.90;;;;;;5010008;28;20674;-70
2023/10/17 06:40:15;;;;;;;8.43;8.33;;;6.70;99.90;;;;;;5012814;28;20466;-71
2023/10/17 06:42:48;;;;;;;8.60;8.50;;;6.70;99.90;;;;;;5014018;28;20848;-70
2023/10/17 06:45:18;;;;;;;8.60;8.50;;;6.80;99.90;;;;;;5015179;28;20497;-71
2023/10/17 06:47:47;;;;;;;8.60;8.50;;;6.90;99.90;;;;;;5010087;28;20551;-71
2023/10/17 06:53:03;;;;;;;8.80;8.70;;;7.00;99.90;;;;;;5008684;28;20484;-69
2023/10/17 06:55:38;;;;;;;8.83;8.73;;;7.00;99.90;;;;;;5018297;28;20492;-69
2023/10/17 06:58:14;;;;;;;8.77;8.67;;;7.10;99.90;;;;;;5020654;28;20556;-70
2023/10/17 07:00:49;;;;;;;9.07;8.87;;;7.20;99.90;;;;;;5008489;28;20987;-69
2023/10/17 07:03:17;;;;;;;9.43;9.23;;;7.30;99.90;;;;;;5007461;28;20562;-69
2023/10/17 07:05:49;;;;;;;9.33;9.13;;;7.30;99.90;;;;;;5012645;28;20457;-70
2023/10/17 07:08:19;;;;;;;9.40;9.20;;;7.50;99.90;;;;;;5011358;28;21019;-70
2023/10/17 07:10:59;;;;;;;9.33;9.13;;;7.50;99.90;;;;;;5026680;28;20456;-69
2023/10/17 07:13:55;;;;;;;9.70;9.50;;;7.60;99.90;;;;;;5018108;28;20533;-69
2023/10/17 07:16:27;;;;;;;9.70;9.50;;;7.60;99.90;;;;;;5006570;28;20896;-69
2023/10/17 07:18:55;;;;;;;9.87;9.67;;;7.60;99.90;;;;;;5002807;28;20511;-71
2023/10/17 07:21:24;;;;;;;10.20;10.00;;;7.60;99.90;;;;;;5012556;27;20505;-70
2023/10/17 07:23:54;;;;;;;10.40;10.20;;;7.70;99.90;;;;;;5022564;28;20484;-69
2023/10/17 07:26:38;;;;;;;10.70;10.50;;;7.80;99.90;;;;;;5015261;28;20587;-69
2023/10/17 07:29:06;;;;;;;11.20;10.90;;;7.90;99.90;;;;;;5014657;28;20468;-70
2023/10/17 07:31:34;;;;;;;10.77;10.50;;;7.90;99.90;;;;;;5017002;28;20465;-69
2023/10/17 07:34:16;;;;;;;11.00;10.70;;;7.90;99.90;;;;;;5016158;27;20462;-69
2023/10/17 07:36:47;;;;;;;11.30;11.00;;;8.00;99.90;;;;;;5012096;27;20542;-70
2023/10/17 07:39:22;;;;;;;11.57;11.27;;;8.00;99.90;;;;;;5016070;28;20557;-71
2023/10/17 07:41:54;;;;;;;11.00;10.70;;;8.10;99.90;;;;;;5022342;27;20467;-71
2023/10/17 07:44:25;;;;;;;11.47;11.17;;;8.20;99.90;;;;;;5012022;28;21432;-69
2023/10/17 07:47:08;;;;;;;11.50;11.20;;;8.20;99.90;;;;;;5023302;27;20985;-70
2023/10/17 07:49:36;;;;;;;11.67;11.37;;;8.30;99.90;;;;;;5019370;27;21019;-69
2023/10/17 07:52:10;;;;;;;11.90;11.60;;;8.40;99.90;;;;;;5019597;28;20465;-69
2023/10/17 07:54:45;;;;;;;12.20;11.90;;;8.50;99.90;;;;;;5012464;28;20560;-71
2023/10/17 07:57:17;;;;;;;12.20;11.90;;;8.60;99.90;;;;;;5018096;27;20568;-70
2023/10/17 07:59:51;;;;;;;12.30;12.00;;;8.60;99.90;;;;;;5005352;28;20967;-71
2023/10/17 08:02:23;;;;;;;12.00;11.70;;;8.70;99.90;;;;;;5010565;28;20465;-69
2023/10/17 08:04:53;;;;;;;12.60;12.20;;;8.80;99.90;;;;;;5022503;27;20469;-71
2023/10/17 08:07:20;;;;;;;13.33;12.93;;;8.90;99.90;;;;;;5012865;28;20462;-70
2023/10/17 08:09:56;;;;;;;13.20;12.80;;;8.90;99.90;;;;;;5027927;27;20504;-69
2023/10/17 08:12:23;;;;;;;13.80;13.40;;;9.00;99.90;;;;;;5018372;27;20472;-69
2023/10/17 08:14:59;;;;;;;13.50;13.10;;;8.90;99.90;;;;;;5009497;28;20485;-69
2023/10/17 08:17:28;;;;;;;13.50;13.10;;;9.00;99.90;;;;;;5018213;28;20544;-70
2023/10/17 08:20:08;;;;;;;14.10;13.60;;;9.10;99.90;;;;;;5012940;28;20469;-69
2023/10/17 08:25:25;;;;;;;13.37;12.97;;;9.20;99.90;;;;;;5006902;28;20955;-70
2023/10/17 08:27:56;;;;;;;14.07;13.60;;;9.40;99.90;;;;;;5017409;28;20465;-70
2023/10/17 08:30:25;;;;;;;14.07;13.57;;;9.50;99.90;;;;;;5013561;28;20459;-70
2023/10/17 08:33:11;;;;;;;14.30;13.80;;;9.40;99.90;;;;;;5010628;28;20473;-70
2023/10/17 08:35:38;;;;;;;14.20;13.70;;;9.50;99.90;;;;;;5012795;28;20838;-71
2023/10/17 08:38:06;;;;;;;14.43;13.93;;;9.50;99.90;;;;;;5019443;27;20461;-71
2023/10/17 08:40:40;;;;;;;14.33;13.83;;;9.70;99.90;;;;;;5015758;28;20468;-70
2023/10/17 08:43:14;;;;;;;14.47;13.97;;;9.80;99.90;;;;;;5018276;28;20475;-70
2023/10/17 08:45:47;;;;;;;14.80;14.30;;;9.90;99.90;;;;;;5008831;27;20493;-70
2023/10/17 08:48:14;;;;;;;14.23;13.77;;;10.00;99.90;;;;;;5016667;27;20600;-71
2023/10/17 08:50:43;;;;;;;14.70;14.20;;;10.10;99.90;;;;;;5015928;28;20949;-71
2023/10/17 08:53:14;;;;;;;14.70;14.20;;;10.20;99.90;;;;;;5013931;28;20522;-71
2023/10/17 08:55:41;;;;;;;14.80;14.30;;;10.40;99.90;;;;;;5023533;28;20457;-70
2023/10/17 08:58:09;;;;;;;14.40;13.90;;;10.30;99.90;;;;;;5017634;28;20544;-70
2023/10/17 09:00:55;;;;;;;14.60;14.10;;;10.20;99.90;;;;;;5019535;28;20541;-71
2023/10/17 09:03:28;;;;;;;14.87;14.37;;;10.30;99.90;;;;;;5011187;27;20466;-70
2023/10/17 09:05:58;;;;;;;14.73;14.23;;;10.10;99.90;;;;;;5020341;28;20556;-70
2023/10/17 09:08:44;;;;;;;14.73;14.23;;;10.10;99.90;;;;;;5021109;28;20474;-71
2023/10/17 09:11:14;;;;;;;14.80;14.30;;;10.00;99.90;;;;;;5015446;28;20458;-71
2023/10/17 09:13:52;;;;;;;14.60;14.10;;;9.90;99.90;;;;;;5011642;28;20530;-70
2023/10/17 09:16:19;;;;;;;15.33;14.80;;;9.70;99.90;;;;;;5017927;28;20505;-71
2023/10/17 09:18:49;;;;;;;14.60;14.10;;;9.70;99.90;;;;;;5010148;28;20465;-70
2023/10/17 09:21:16;;;;;;;14.70;14.20;;;9.60;99.90;;;;;;5009723;27;21648;-71
2023/10/17 09:23:43;;;;;;;15.20;14.70;;;9.60;99.90;;;;;;5018595;28;20456;-70
2023/10/17 09:26:11;;;;;;;14.97;14.47;;;9.60;99.90;;;;;;5016085;28;20584;-71
2023/10/17 09:28:39;;;;;;;14.30;13.83;;;9.70;99.90;;;;;;5015624;28;20465;-70
2023/10/17 09:31:08;;;;;;;13.77;13.37;;;9.80;99.90;;;;;;5015286;28;20825;-72
2023/10/17 09:33:37;;;;;;;14.13;13.73;;;9.90;99.90;;;;;;5017482;28;20893;-70
2023/10/17 09:36:06;;;;;;;14.33;13.90;;;9.80;99.90;;;;;;5048809;27;20472;-71
2023/10/17 09:38:34;;;;;;;14.67;14.17;;;9.80;99.90;;;;;;5011892;28;20500;-69
2023/10/17 09:41:01;;;;;;;14.17;13.77;;;10.00;99.90;;;;;;5009974;28;20477;-70
2023/10/17 09:43:30;;;;;;;14.50;14.00;;;10.00;99.90;;;;;;5015324;28;20461;-70
2023/10/17 09:46:03;;;;;;;14.87;14.37;;;10.10;99.90;;;;;;5014679;28;20501;-70
2023/10/17 09:48:34;;;;;;;13.57;13.17;;;10.30;99.90;;;;;;5021327;28;20892;-69
2023/10/17 09:51:02;;;;;;;14.30;13.90;;;10.40;99.90;;;;;;5010832;28;20466;-70
2023/10/17 09:53:35;;;;;;;14.53;14.07;;;10.60;99.90;;;;;;5014713;28;20518;-71
2023/10/17 09:56:07;;;;;;;14.70;14.20;;;10.70;99.90;;;;;;5015690;28;20473;-70
2023/10/17 09:58:39;;;;;;;14.47;13.97;;;10.90;99.90;;;;;;5021243;28;20653;-70
2023/10/17 10:01:14;;;;;;;14.30;13.87;;;11.20;99.90;;;;;;5019294;28;20692;-70
2023/10/17 10:03:41;;;;;;;14.90;14.40;;;11.70;99.90;;;;;;5013573;28;20514;-71
2023/10/17 10:06:22;;;;;;;14.03;13.63;;;12.20;99.90;;;;;;5015401;28;20488;-71
2023/10/17 10:08:55;;;;;;;13.93;13.53;;;12.80;99.90;;;;;;5011058;28;20469;-72
2023/10/17 10:11:42;;;;;;;15.00;14.50;;;13.60;99.90;;;;;;5005198;28;20466;-70
2023/10/17 10:14:10;;;;;;;15.33;14.83;;;14.30;99.90;;;;;;5022297;28;20463;-70
2023/10/17 10:16:49;;;;;;;14.30;13.80;;;14.90;99.90;;;;;;5016877;28;20455;-70
2023/10/17 10:19:16;;;;;;;14.20;13.70;;;15.40;99.90;;;;;;5011723;28;20518;-72
2023/10/17 10:21:58;;;;;;;14.70;14.20;;;15.90;99.90;;;;;;5014009;28;20476;-70
2023/10/17 10:24:31;;;;;;;14.50;14.00;;;16.00;99.90;;;;;;5009908;28;20533;-71
2023/10/17 10:27:18;;;;;;;14.70;14.20;;;16.00;99.90;;;;;;5011710;28;20507;-70
2023/10/17 10:29:49;;;;;;;14.90;14.40;;;15.80;99.90;;;;;;5021420;28;20445;-71
2023/10/17 10:32:34;;;;;;;15.00;14.50;;;15.90;99.90;;;;;;5017665;28;20468;-72
2023/10/17 10:35:03;;;;;;;15.37;14.87;;;16.00;99.90;;;;;;5012615;28;20701;-70
2023/10/17 10:37:30;;;;;;;15.50;15.00;;;16.10;99.90;;;;;;5018692;28;20807;-70
2023/10/17 10:40:16;;;;;;;14.87;14.37;;;16.10;99.90;;;;;;5014095;28;20488;-70
2023/10/17 10:42:44;;;;;;;15.07;14.57;;;16.00;99.90;;;;;;5016583;28;20449;-71
2023/10/17 10:45:35;;;;;;;15.83;15.33;;;16.40;99.90;;;;;;5014690;28;20852;-71
2023/10/17 10:48:04;;;;;;;15.37;14.87;;;16.40;99.90;;;;;;5008275;28;20569;-70
2023/10/17 10:50:33;;;;;;;14.80;14.30;;;16.60;99.90;;;;;;5010200;28;21059;-72
2023/10/17 10:53:18;;;;;;;15.07;14.57;;;16.50;99.90;;;;;;5012887;28;20474;-70
2023/10/17 10:55:55;;;;;;;14.60;14.20;;;16.30;99.90;;;;;;5003110;28;20564;-69
2023/10/17 10:58:22;;;;;;;14.47;14.07;;;16.30;99.90;;;;;;5022207;28;20479;-69
2023/10/17 11:00:49;;;;;;;14.90;14.40;;;16.70;99.90;;;;;;5019788;28;20466;-70
2023/10/17 11:03:19;;;;;;;14.67;14.27;;;17.30;99.90;;;;;;5017325;27;20449;-70
2023/10/17 11:05:56;;;;;;;15.00;14.50;;;17.80;99.90;;;;;;5019626;27;21057;-70
2023/10/17 11:08:24;;;;;;;14.80;14.30;;;17.90;99.90;;;;;;5017452;28;20481;-71
2023/10/17 11:10:59;;;;;;;14.10;13.70;;;17.90;99.90;;;;;;5029189;27;20453;-72
2023/10/17 11:13:31;;;;;;;15.13;14.63;;;17.90;99.90;;;;;;5025530;28;20455;-71
2023/10/17 11:15:59;;;;;;;14.20;13.80;;;17.70;99.90;;;;;;5023787;28;20470;-70
2023/10/17 11:18:26;;;;;;;14.00;13.60;;;18.00;99.90;;;;;;5018851;28;20453;-70
2023/10/17 11:20:55;;;;;;;14.43;14.03;;;18.50;99.90;;;;;;5013150;28;20498;-73
2023/10/17 11:23:26;;;;;;;14.47;14.07;;;17.60;99.90;;;;;;5020062;28;20461;-69
2023/10/17 11:25:56;;;;;;;14.50;14.10;;;18.00;99.90;;;;;;5025896;27;20538;-70
2023/10/17 11:28:24;;;;;;;15.17;14.67;;;17.70;99.90;;;;;;5012282;28;20470;-69
2023/10/17 11:30:51;;;;;;;15.60;15.10;;;17.60;99.90;;;;;;5011734;28;20477;-70
2023/10/17 11:33:28;;;;;;;15.03;14.53;;;17.80;99.90;;;;;;5021459;28;20485;-72
2023/10/17 11:36:03;;;;;;;14.50;14.00;;;17.80;99.90;;;;;;5018032;28;20480;-69
2023/10/17 11:38:37;;;;;;;14.77;14.27;;;17.90;99.90;;;;;;5026447;27;21205;-69
2023/10/17 11:41:06;;;;;;;14.87;14.37;;;17.90;99.90;;;;;;5019458;28;20465;-72
2023/10/17 11:43:36;;;;;;;14.20;13.80;;;18.20;99.90;;;;;;5012943;28;20499;-69
2023/10/17 11:46:04;;;;;;;15.43;14.93;;;18.50;99.90;;;;;;5010596;28;21150;-69
2023/10/17 11:48:33;;;;;;;14.43;14.03;;;18.40;99.90;;;;;;5021936;28;20620;-70
2023/10/17 11:51:07;;;;;;;15.50;15.00;;;18.30;99.90;;;;;;5024774;28;20483;-69
2023/10/17 11:53:34;;;;;;;15.20;14.70;;;18.60;99.90;;;;;;5023715;28;20991;-71
2023/10/17 11:56:02;;;;;;;14.93;14.43;;;18.50;99.90;;;;;;5013613;28;20465;-69
2023/10/17 11:58:32;;;;;;;15.10;14.60;;;19.20;99.90;;;;;;5009932;28;20503;-71
2023/10/17 12:01:00;;;;;;;15.00;14.50;;;19.50;99.90;;;;;;5023603;28;20956;-69
2023/10/17 12:03:27;;;;;;;15.10;14.60;;;19.70;99.90;;;;;;5019165;28;20498;-70
2023/10/17 12:05:57;;;;;;;15.37;14.87;;;19.90;99.90;;;;;;5024773;28;20458;-70
2023/10/17 12:08:29;;;;;;;15.30;14.80;;;19.50;99.90;;;;;;5021513;28;20518;-68
2023/10/17 12:10:56;;;;;;;15.70;15.20;;;19.30;99.90;;;;;;5015878;28;20542;-70
2023/10/17 12:13:26;;;;;;;15.13;14.63;;;19.30;99.90;;;;;;5017298;28;20458;-69
2023/10/17 12:15:57;;;;;;;14.97;14.47;;;18.30;99.90;;;;;;5014234;28;20457;-70
2023/10/17 12:18:25;;;;;;;14.70;14.20;;;18.40;99.90;;;;;;5025283;28;20776;-69
2023/10/17 12:20:55;;;;;;;16.10;15.50;;;18.40;99.90;;;;;;5015373;28;20523;-70
2023/10/17 12:23:29;;;;;;;16.20;15.60;;;18.90;99.90;;;;;;5025952;27;20459;-69
2023/10/17 12:25:58;;;;;;;15.43;14.93;;;19.20;99.90;;;;;;5008953;28;20465;-70
2023/10/17 12:28:26;;;;;;;14.97;14.47;;;18.00;99.90;;;;;;5016777;28;20800;-70
2023/10/17 12:30:54;;;;;;;15.43;14.93;;;18.40;99.90;;;;;;5024909;27;20458;-70
2023/10/17 12:33:23;;;;;;;14.20;13.80;;;18.70;99.90;;;;;;5024335;28;20916;-70
2023/10/17 12:35:51;;;;;;;13.73;13.33;;;19.00;99.90;;;;;;5011997;28;20490;-70
2023/10/17 12:38:25;;;;;;;14.30;13.90;;;19.30;99.90;;;;;;5013359;28;20559;-69
2023/10/17 12:40:54;;;;;;;14.20;13.80;;;19.30;99.90;;;;;;5014986;28;20501;-70
2023/10/17 12:43:21;;;;;;;14.80;14.30;;;19.50;99.90;;;;;;5024275;27;20525;-69
2023/10/17 12:45:49;;;;;;;14.20;13.80;;;19.20;99.90;;;;;;5023801;28;20568;-69
2023/10/17 12:48:17;;;;;;;15.33;14.83;;;18.80;99.90;;;;;;5018027;28;20500;-70
2023/10/17 12:50:45;;;;;;;15.03;14.53;;;18.80;99.90;;;;;;5013211;27;20463;-69
2023/10/17 12:53:13;;;;;;;14.20;13.80;;;19.10;99.90;;;;;;5016656;28;20820;-71
2023/10/17 12:55:41;;;;;;;13.77;13.37;;;19.10;99.90;;;;;;5013598;28;20562;-69
2023/10/17 12:58:10;;;;;;;13.30;12.90;;;19.00;99.90;;;;;;5020341;28;20457;-71
2023/10/17 13:00:37;;;;;;;13.73;13.33;;;18.90;99.90;;;;;;5019469;27;20532;-69
2023/10/17 13:03:06;;;;;;;13.50;13.10;;;19.50;99.90;;;;;;5016453;28;20537;-70
2023/10/17 13:05:35;;;;;;;14.37;13.87;;;19.90;99.90;;;;;;5025417;28;20454;-69
2023/10/17 13:08:02;;;;;;;13.83;13.43;;;20.10;99.90;;;;;;5014672;28;20934;-69
2023/10/17 13:10:30;;;;;;;14.10;13.70;;;20.00;99.90;;;;;;5020571;27;20498;-69
2023/10/17 13:12:59;;;;;;;14.00;13.60;;;20.40;99.40;;;;;;5019286;28;20457;-69
2023/10/17 13:15:26;;;;;;;14.23;13.83;;;20.00;99.30;;;;;;5018850;28;20481;-70
2023/10/17 13:17:55;;;;;;;14.33;13.90;;;20.00;99.30;;;;;;5016229;28;20458;-71
2023/10/17 13:20:28;;;;;;;14.30;13.90;;;20.00;99.90;;;;;;5014880;28;20474;-69
2023/10/17 13:22:59;;;;;;;14.60;14.10;;;19.80;99.50;;;;;;5011115;28;20514;-71
2023/10/17 13:25:26;;;;;;;14.80;14.30;;;19.80;99.90;;;;;;5020470;28;20774;-70
2023/10/17 13:27:53;;;;;;;15.70;15.20;;;20.30;99.90;;;;;;5023184;28;21022;-71
2023/10/17 13:30:22;;;;;;;13.90;13.50;;;20.60;99.40;;;;;;5021793;27;20470;-71
2023/10/17 13:32:52;;;;;;;14.70;14.20;;;20.40;99.90;;;;;;5020779;28;20518;-70
2023/10/17 13:35:20;;;;;;;14.07;13.67;;;19.80;99.90;;;;;;5009073;28;20493;-71
2023/10/17 13:37:52;;;;;;;13.83;13.43;;;20.10;99.90;;;;;;5008811;28;20465;-70
2023/10/17 13:40:21;;;;;;;14.30;13.90;;;20.40;99.90;;;;;;5022389;28;20567;-71
2023/10/17 13:42:52;;;;;;;14.00;13.60;;;19.90;99.90;;;;;;5025082;27;20450;-70
2023/10/17 13:45:21;;;;;;;14.30;13.90;;;19.70;99.90;;;;;;5013916;28;20756;-70
2023/10/17 13:47:49;;;;;;;15.17;14.67;;;19.70;99.60;;;;;;5024111;27;20928;-70
2023/10/17 13:50:18;;;;;;;14.83;14.33;;;19.20;99.90;;;;;;5015537;27;21012;-71
2023/10/17 13:52:46;;;;;;;15.97;15.40;;;18.90;99.90;;;;;;5015674;28;20789;-71
2023/10/17 13:55:14;;;;;;;14.90;14.40;;;18.80;99.90;;;;;;5016416;28;20471;-71
2023/10/17 13:57:44;;;;;;;14.57;14.17;;;18.10;99.90;;;;;;5013748;28;21180;-70
2023/10/17 14:00:18;;;;;;;15.20;14.70;;;17.80;99.90;;;;;;5022322;28;20453;-72
2023/10/17 14:02:49;;;;;;;14.30;13.90;;;18.20;99.90;;;;;;5020413;28;20642;-70
2023/10/17 14:05:18;;;;;;;14.90;14.40;;;18.20;99.90;;;;;;5022521;28;20581;-71
2023/10/17 14:07:48;;;;;;;14.47;14.07;;;18.20;99.90;;;;;;5011693;28;20565;-71
2023/10/17 14:10:15;;;;;;;15.20;14.70;;;18.20;99.90;;;;;;5031031;27;20494;-72
2023/10/17 14:12:46;;;;;;;15.27;14.77;;;18.90;99.90;;;;;;5016275;28;20457;-71
2023/10/17 14:15:13;;;;;;;15.00;14.50;;;19.30;99.90;;;;;;5013437;28;20549;-71
2023/10/17 14:17:45;;;;;;;15.60;15.10;;;19.50;99.90;;;;;;5016755;28;20461;-70
2023/10/17 14:20:17;;;;;;;15.23;14.73;;;19.60;99.90;;;;;;5021790;28;20935;-71
2023/10/17 14:23:08;;;;;;;16.23;15.63;;;20.10;99.90;;;;;;5018029;28;20450;-71
2023/10/17 14:28:22;;;;;;;15.20;14.70;;;20.30;98.70;;;;;;5012666;28;20515;-70
2023/10/17 14:30:49;;;;;;;15.30;14.80;;;20.00;98.50;;;;;;5010055;28;20843;-70
2023/10/17 14:33:16;;;;;;;14.17;13.77;;;20.10;97.50;;;;;;5015947;28;20494;-70
2023/10/17 14:35:44;;;;;;;14.70;14.20;;;20.20;98.20;;;;;;5012517;28;20577;-71
2023/10/17 14:38:11;;;;;;;15.07;14.57;;;20.10;97.30;;;;;;5021586;28;20789;-70
2023/10/17 14:40:38;;;;;;;15.00;14.50;;;20.40;98.20;;;;;;5017014;28;20466;-69
2023/10/17 14:43:08;;;;;;;15.90;15.40;;;20.60;97.90;;;;;;5012482;28;20869;-70
2023/10/17 14:45:41;;;;;;;15.40;14.90;;;20.30;98.10;;;;;;5017865;28;20946;-70
2023/10/17 14:48:11;;;;;;;15.50;15.00;;;20.00;98.50;;;;;;5022296;28;20517;-71
2023/10/17 14:50:38;;;;;;;15.27;14.77;;;20.00;98.50;;;;;;5011182;28;20470;-72
2023/10/17 14:53:05;;;;;;;15.37;14.87;;;19.90;98.80;;;;;;5020853;28;20457;-71
2023/10/17 14:55:34;;;;;;;15.97;15.37;;;19.90;99.00;;;;;;5013831;28;20477;-70
2023/10/17 14:58:01;;;;;;;14.77;14.27;;;20.00;98.60;;;;;;5016870;28;20462;-70
2023/10/17 15:00:29;;;;;;;15.23;14.73;;;19.70;98.70;;;;;;5019393;28;20488;-71
2023/10/17 15:02:59;;;;;;;15.50;15.00;;;19.30;98.60;;;;;;5014131;28;20533;-71
2023/10/17 15:05:26;;;;;;;14.53;14.13;;;19.40;98.70;;;;;;5008614;28;20474;-70
2023/10/17 15:07:54;;;;;;;14.40;14.00;;;19.40;99.00;;;;;;5021164;28;20506;-70
2023/10/17 15:10:22;;;;;;;15.53;15.03;;;19.40;99.40;;;;;;5038053;28;20484;-71
2023/10/17 15:12:50;;;;;;;15.33;14.83;;;19.30;99.20;;;;;;5018798;28;20456;-71
2023/10/17 15:15:17;;;;;;;15.60;15.10;;;19.50;99.50;;;;;;5013931;28;20541;-70
2023/10/17 15:17:45;;;;;;;15.50;15.00;;;19.00;99.20;;;;;;5021108;28;20818;-71
2023/10/17 15:20:14;;;;;;;15.90;15.40;;;18.90;99.10;;;;;;5017075;28;20576;-70
2023/10/17 15:22:43;;;;;;;15.30;14.80;;;18.80;99.40;;;;;;5022234;28;20458;-71
2023/10/17 15:25:12;;;;;;;14.80;14.30;;;18.70;99.30;;;;;;5016330;28;20547;-71
2023/10/17 15:27:39;;;;;;;14.90;14.40;;;18.60;99.70;;;;;;5018136;28;20474;-71
2023/10/17 15:30:08;;;;;;;14.50;14.10;;;18.40;99.90;;;;;;5021982;28;20460;-72